sensor_id;sensor_type;location;lat;lon;timestamp;P1;durP1;ratioP1;P2;durP2;ratioP2
40695;SDS011;40425;51.102;17.208;2022-07-18T00:00:21;2.58;;;1.77;;
40695;SDS011;40425;51.102;17.208;2022-07-18T00:05:21;5.57;;;2.35;;
40695;SDS011;40425;51.102;17.208;2022-07-18T00:10:22;6.47;;;1.80;;
40695;SDS011;40425;51.102;17.208;2022-07-18T00:15:23;4.53;;;1.55;;
40695;SDS011;40425;51.102;17.208;2022-07-18T00:20:24;7.07;;;1.23;;
40695;SDS011;40425;51.102;17.208;2022-07-18T00:25:26;6.53;;;1.98;;
40695;SDS011;40425;51.102;17.208;2022-07-18T00:30:27;4.13;;;1.50;;
40695;SDS011;40425;51.102;17.208;2022-07-18T00:35:28;3.53;;;1.08;;
40695;SDS011;40425;51.102;17.208;2022-07-18T00:40:29;2.55;;;1.40;;
40695;SDS011;40425;51.102;17.208;2022-07-18T00:45:31;7.22;;;1.85;;
40695;SDS011;40425;51.102;17.208;2022-07-18T00:50:32;3.78;;;2.05;;
40695;SDS011;40425;51.102;17.208;2022-07-18T00:55:33;3.30;;;2.25;;
40695;SDS011;40425;51.102;17.208;2022-07-18T01:00:34;5.40;;;2.55;;
40695;SDS011;40425;51.102;17.208;2022-07-18T01:05:54;6.63;;;3.33;;
40695;SDS011;40425;51.102;17.208;2022-07-18T01:10:55;6.68;;;2.90;;
40695;SDS011;40425;51.102;17.208;2022-07-18T01:15:56;5.28;;;2.10;;
40695;SDS011;40425;51.102;17.208;2022-07-18T01:20:57;4.10;;;2.53;;
40695;SDS011;40425;51.102;17.208;2022-07-18T01:25:57;5.57;;;2.83;;
40695;SDS011;40425;51.102;17.208;2022-07-18T01:30:58;3.45;;;2.38;;
40695;SDS011;40425;51.102;17.208;2022-07-18T01:36:00;6.57;;;2.53;;
40695;SDS011;40425;51.102;17.208;2022-07-18T01:41:02;6.75;;;2.90;;
40695;SDS011;40425;51.102;17.208;2022-07-18T01:46:04;5.78;;;3.10;;
40695;SDS011;40425;51.102;17.208;2022-07-18T01:51:05;3.38;;;1.98;;
40695;SDS011;40425;51.102;17.208;2022-07-18T01:56:11;5.47;;;2.53;;
40695;SDS011;40425;51.102;17.208;2022-07-18T02:01:13;5.00;;;1.80;;
40695;SDS011;40425;51.102;17.208;2022-07-18T02:06:13;7.38;;;2.78;;
40695;SDS011;40425;51.102;17.208;2022-07-18T02:11:14;4.78;;;2.10;;
40695;SDS011;40425;51.102;17.208;2022-07-18T02:16:15;3.10;;;2.05;;
40695;SDS011;40425;51.102;17.208;2022-07-18T02:21:16;3.42;;;1.80;;
40695;SDS011;40425;51.102;17.208;2022-07-18T02:26:17;10.13;;;2.00;;
40695;SDS011;40425;51.102;17.208;2022-07-18T02:31:18;3.35;;;1.65;;
40695;SDS011;40425;51.102;17.208;2022-07-18T02:36:19;1.90;;;1.60;;
40695;SDS011;40425;51.102;17.208;2022-07-18T02:41:20;5.25;;;2.72;;
40695;SDS011;40425;51.102;17.208;2022-07-18T02:46:21;5.85;;;1.70;;
40695;SDS011;40425;51.102;17.208;2022-07-18T02:51:22;3.10;;;2.13;;
40695;SDS011;40425;51.102;17.208;2022-07-18T02:56:22;8.70;;;2.65;;
40695;SDS011;40425;51.102;17.208;2022-07-18T03:01:23;4.28;;;2.67;;
40695;SDS011;40425;51.102;17.208;2022-07-18T03:06:24;9.93;;;3.17;;
40695;SDS011;40425;51.102;17.208;2022-07-18T03:11:25;6.25;;;2.75;;
40695;SDS011;40425;51.102;17.208;2022-07-18T03:16:26;5.97;;;3.00;;
40695;SDS011;40425;51.102;17.208;2022-07-18T03:21:27;5.28;;;1.80;;
40695;SDS011;40425;51.102;17.208;2022-07-18T03:26:29;7.43;;;2.13;;
40695;SDS011;40425;51.102;17.208;2022-07-18T03:31:30;2.92;;;1.85;;
40695;SDS011;40425;51.102;17.208;2022-07-18T03:36:30;3.28;;;1.80;;
40695;SDS011;40425;51.102;17.208;2022-07-18T03:41:31;4.60;;;1.67;;
40695;SDS011;40425;51.102;17.208;2022-07-18T03:46:33;3.13;;;2.25;;
40695;SDS011;40425;51.102;17.208;2022-07-18T03:51:33;2.70;;;1.90;;
40695;SDS011;40425;51.102;17.208;2022-07-18T03:56:35;2.88;;;1.70;;
40695;SDS011;40425;51.102;17.208;2022-07-18T04:01:36;3.08;;;2.08;;
40695;SDS011;40425;51.102;17.208;2022-07-18T04:06:37;2.60;;;2.08;;
40695;SDS011;40425;51.102;17.208;2022-07-18T04:11:38;8.88;;;2.70;;
40695;SDS011;40425;51.102;17.208;2022-07-18T04:16:39;2.78;;;1.75;;
40695;SDS011;40425;51.102;17.208;2022-07-18T04:21:40;6.97;;;2.10;;
40695;SDS011;40425;51.102;17.208;2022-07-18T04:26:41;3.63;;;1.40;;
40695;SDS011;40425;51.102;17.208;2022-07-18T04:31:42;3.33;;;1.60;;
40695;SDS011;40425;51.102;17.208;2022-07-18T04:36:43;4.60;;;1.33;;
40695;SDS011;40425;51.102;17.208;2022-07-18T04:41:44;4.05;;;1.35;;
40695;SDS011;40425;51.102;17.208;2022-07-18T04:46:45;3.42;;;1.13;;
40695;SDS011;40425;51.102;17.208;2022-07-18T04:51:45;6.35;;;1.40;;
40695;SDS011;40425;51.102;17.208;2022-07-18T04:56:46;3.30;;;1.20;;
40695;SDS011;40425;51.102;17.208;2022-07-18T05:01:47;3.47;;;1.02;;
40695;SDS011;40425;51.102;17.208;2022-07-18T05:06:48;4.95;;;1.67;;
40695;SDS011;40425;51.102;17.208;2022-07-18T05:11:49;2.65;;;0.90;;
40695;SDS011;40425;51.102;17.208;2022-07-18T05:16:50;8.10;;;1.60;;
40695;SDS011;40425;51.102;17.208;2022-07-18T05:21:51;7.38;;;2.97;;
40695;SDS011;40425;51.102;17.208;2022-07-18T05:26:51;9.82;;;4.18;;
40695;SDS011;40425;51.102;17.208;2022-07-18T05:31:52;7.53;;;4.47;;
40695;SDS011;40425;51.102;17.208;2022-07-18T05:36:54;12.45;;;4.97;;
40695;SDS011;40425;51.102;17.208;2022-07-18T05:41:55;15.60;;;3.88;;
40695;SDS011;40425;51.102;17.208;2022-07-18T05:46:56;10.48;;;3.90;;
40695;SDS011;40425;51.102;17.208;2022-07-18T05:51:56;12.32;;;4.97;;
40695;SDS011;40425;51.102;17.208;2022-07-18T05:56:57;8.27;;;4.18;;
40695;SDS011;40425;51.102;17.208;2022-07-18T06:01:58;10.63;;;3.10;;
40695;SDS011;40425;51.102;17.208;2022-07-18T06:06:59;14.25;;;3.35;;
40695;SDS011;40425;51.102;17.208;2022-07-18T06:12:00;6.20;;;1.92;;
40695;SDS011;40425;51.102;17.208;2022-07-18T06:17:01;11.32;;;1.92;;
40695;SDS011;40425;51.102;17.208;2022-07-18T06:22:02;6.88;;;1.70;;
40695;SDS011;40425;51.102;17.208;2022-07-18T06:27:04;10.68;;;1.88;;
40695;SDS011;40425;51.102;17.208;2022-07-18T06:32:05;6.00;;;1.00;;
40695;SDS011;40425;51.102;17.208;2022-07-18T06:37:06;11.38;;;1.40;;
40695;SDS011;40425;51.102;17.208;2022-07-18T06:42:08;6.53;;;0.98;;
40695;SDS011;40425;51.102;17.208;2022-07-18T06:47:09;2.65;;;0.93;;
40695;SDS011;40425;51.102;17.208;2022-07-18T06:52:10;4.95;;;0.93;;
40695;SDS011;40425;51.102;17.208;2022-07-18T06:57:11;8.82;;;0.75;;
40695;SDS011;40425;51.102;17.208;2022-07-18T07:02:12;3.20;;;0.75;;
40695;SDS011;40425;51.102;17.208;2022-07-18T07:07:13;2.72;;;0.80;;
40695;SDS011;40425;51.102;17.208;2022-07-18T07:12:14;2.88;;;0.43;;
40695;SDS011;40425;51.102;17.208;2022-07-18T07:17:15;3.75;;;0.80;;
40695;SDS011;40425;51.102;17.208;2022-07-18T07:22:16;4.47;;;0.95;;
40695;SDS011;40425;51.102;17.208;2022-07-18T07:27:17;6.15;;;0.60;;
40695;SDS011;40425;51.102;17.208;2022-07-18T07:32:18;2.83;;;0.47;;
40695;SDS011;40425;51.102;17.208;2022-07-18T07:37:18;8.00;;;0.93;;
40695;SDS011;40425;51.102;17.208;2022-07-18T07:42:19;3.22;;;0.35;;
40695;SDS011;40425;51.102;17.208;2022-07-18T07:47:20;2.38;;;0.30;;
40695;SDS011;40425;51.102;17.208;2022-07-18T07:52:21;3.95;;;0.47;;
40695;SDS011;40425;51.102;17.208;2022-07-18T07:57:24;6.22;;;0.60;;
40695;SDS011;40425;51.102;17.208;2022-07-18T08:02:25;4.10;;;0.40;;
40695;SDS011;40425;51.102;17.208;2022-07-18T08:07:26;2.20;;;0.20;;
40695;SDS011;40425;51.102;17.208;2022-07-18T08:12:27;4.07;;;0.50;;
40695;SDS011;40425;51.102;17.208;2022-07-18T08:17:28;2.60;;;0.30;;
40695;SDS011;40425;51.102;17.208;2022-07-18T08:22:29;4.97;;;0.50;;
40695;SDS011;40425;51.102;17.208;2022-07-18T08:27:30;3.70;;;0.38;;
40695;SDS011;40425;51.102;17.208;2022-07-18T08:32:31;5.60;;;0.30;;
40695;SDS011;40425;51.102;17.208;2022-07-18T08:37:33;1.20;;;0.30;;
40695;SDS011;40425;51.102;17.208;2022-07-18T08:42:34;1.67;;;0.30;;
40695;SDS011;40425;51.102;17.208;2022-07-18T08:47:35;2.17;;;0.30;;
40695;SDS011;40425;51.102;17.208;2022-07-18T08:52:36;2.15;;;0.30;;
40695;SDS011;40425;51.102;17.208;2022-07-18T08:57:39;3.45;;;0.30;;
40695;SDS011;40425;51.102;17.208;2022-07-18T09:02:40;2.63;;;0.20;;
40695;SDS011;40425;51.102;17.208;2022-07-18T09:07:40;2.13;;;0.40;;
40695;SDS011;40425;51.102;17.208;2022-07-18T09:12:54;2.85;;;0.25;;
40695;SDS011;40425;51.102;17.208;2022-07-18T09:17:57;1.98;;;0.30;;
40695;SDS011;40425;51.102;17.208;2022-07-18T09:22:57;4.30;;;0.28;;
40695;SDS011;40425;51.102;17.208;2022-07-18T09:27:58;2.20;;;0.30;;
40695;SDS011;40425;51.102;17.208;2022-07-18T09:38:05;4.55;;;0.50;;
40695;SDS011;40425;51.102;17.208;2022-07-18T09:43:09;2.65;;;0.25;;
40695;SDS011;40425;51.102;17.208;2022-07-18T09:48:19;7.72;;;0.45;;
40695;SDS011;40425;51.102;17.208;2022-07-18T09:53:31;1.40;;;0.20;;
40695;SDS011;40425;51.102;17.208;2022-07-18T09:58:36;1.90;;;0.30;;
40695;SDS011;40425;51.102;17.208;2022-07-18T10:03:39;2.08;;;0.40;;
40695;SDS011;40425;51.102;17.208;2022-07-18T10:08:40;3.75;;;0.30;;
40695;SDS011;40425;51.102;17.208;2022-07-18T10:13:42;2.55;;;0.40;;
40695;SDS011;40425;51.102;17.208;2022-07-18T10:18:44;2.55;;;0.40;;
40695;SDS011;40425;51.102;17.208;2022-07-18T10:23:46;4.80;;;0.30;;
40695;SDS011;40425;51.102;17.208;2022-07-18T10:39:09;3.85;;;0.40;;
40695;SDS011;40425;51.102;17.208;2022-07-18T11:00:14;2.60;;;0.30;;
40695;SDS011;40425;51.102;17.208;2022-07-18T11:15:59;13.20;;;0.97;;
40695;SDS011;40425;51.102;17.208;2022-07-18T11:21:17;4.30;;;0.57;;
40695;SDS011;40425;51.102;17.208;2022-07-18T11:26:26;3.80;;;0.30;;
40695;SDS011;40425;51.102;17.208;2022-07-18T11:31:27;3.20;;;0.43;;
40695;SDS011;40425;51.102;17.208;2022-07-18T11:36:30;3.75;;;0.40;;
40695;SDS011;40425;51.102;17.208;2022-07-18T11:41:32;4.43;;;0.47;;
40695;SDS011;40425;51.102;17.208;2022-07-18T11:46:35;4.18;;;0.52;;
40695;SDS011;40425;51.102;17.208;2022-07-18T11:51:39;6.90;;;0.50;;
40695;SDS011;40425;51.102;17.208;2022-07-18T11:56:46;4.28;;;0.45;;
40695;SDS011;40425;51.102;17.208;2022-07-18T12:01:51;1.30;;;0.50;;
40695;SDS011;40425;51.102;17.208;2022-07-18T12:07:12;3.72;;;0.43;;
40695;SDS011;40425;51.102;17.208;2022-07-18T12:12:25;5.65;;;0.70;;
40695;SDS011;40425;51.102;17.208;2022-07-18T12:17:26;3.25;;;0.30;;
40695;SDS011;40425;51.102;17.208;2022-07-18T12:22:28;1.63;;;0.22;;
40695;SDS011;40425;51.102;17.208;2022-07-18T12:37:55;1.27;;;0.30;;
40695;SDS011;40425;51.102;17.208;2022-07-18T12:43:02;2.55;;;0.30;;
40695;SDS011;40425;51.102;17.208;2022-07-18T12:48:07;2.17;;;0.40;;
40695;SDS011;40425;51.102;17.208;2022-07-18T12:53:10;8.90;;;0.32;;
40695;SDS011;40425;51.102;17.208;2022-07-18T12:58:11;3.28;;;0.40;;
40695;SDS011;40425;51.102;17.208;2022-07-18T13:03:12;3.53;;;0.40;;
40695;SDS011;40425;51.102;17.208;2022-07-18T13:08:14;2.15;;;0.35;;
40695;SDS011;40425;51.102;17.208;2022-07-18T13:13:15;4.78;;;0.47;;
40695;SDS011;40425;51.102;17.208;2022-07-18T13:18:16;1.98;;;0.47;;
40695;SDS011;40425;51.102;17.208;2022-07-18T13:23:17;5.45;;;0.40;;
40695;SDS011;40425;51.102;17.208;2022-07-18T13:28:18;3.30;;;0.32;;
40695;SDS011;40425;51.102;17.208;2022-07-18T13:33:19;2.58;;;0.30;;
40695;SDS011;40425;51.102;17.208;2022-07-18T13:38:20;3.33;;;0.65;;
40695;SDS011;40425;51.102;17.208;2022-07-18T13:43:21;6.07;;;0.40;;
40695;SDS011;40425;51.102;17.208;2022-07-18T13:48:22;3.80;;;0.40;;
40695;SDS011;40425;51.102;17.208;2022-07-18T13:53:22;4.57;;;0.30;;
40695;SDS011;40425;51.102;17.208;2022-07-18T13:58:23;3.33;;;0.30;;
40695;SDS011;40425;51.102;17.208;2022-07-18T14:03:24;6.38;;;0.30;;
40695;SDS011;40425;51.102;17.208;2022-07-18T14:08:25;1.92;;;0.30;;
40695;SDS011;40425;51.102;17.208;2022-07-18T14:13:26;3.88;;;0.40;;
40695;SDS011;40425;51.102;17.208;2022-07-18T14:18:27;4.05;;;0.30;;
40695;SDS011;40425;51.102;17.208;2022-07-18T14:23:28;3.58;;;0.20;;
40695;SDS011;40425;51.102;17.208;2022-07-18T14:28:29;7.60;;;0.40;;
40695;SDS011;40425;51.102;17.208;2022-07-18T14:33:30;4.88;;;0.50;;
40695;SDS011;40425;51.102;17.208;2022-07-18T14:38:31;2.70;;;0.35;;
40695;SDS011;40425;51.102;17.208;2022-07-18T14:43:32;9.93;;;0.60;;
40695;SDS011;40425;51.102;17.208;2022-07-18T14:48:33;6.25;;;0.55;;
40695;SDS011;40425;51.102;17.208;2022-07-18T14:53:34;2.13;;;0.30;;
40695;SDS011;40425;51.102;17.208;2022-07-18T14:58:34;5.05;;;0.40;;
40695;SDS011;40425;51.102;17.208;2022-07-18T15:03:35;1.85;;;0.40;;
40695;SDS011;40425;51.102;17.208;2022-07-18T15:08:36;2.60;;;0.25;;
40695;SDS011;40425;51.102;17.208;2022-07-18T15:13:37;3.83;;;0.30;;
40695;SDS011;40425;51.102;17.208;2022-07-18T15:18:38;5.82;;;0.30;;
40695;SDS011;40425;51.102;17.208;2022-07-18T15:23:39;3.03;;;0.30;;
40695;SDS011;40425;51.102;17.208;2022-07-18T15:28:40;5.05;;;0.45;;
40695;SDS011;40425;51.102;17.208;2022-07-18T15:33:41;2.33;;;0.28;;
40695;SDS011;40425;51.102;17.208;2022-07-18T15:38:42;1.63;;;0.38;;
40695;SDS011;40425;51.102;17.208;2022-07-18T15:43:43;3.40;;;0.40;;
40695;SDS011;40425;51.102;17.208;2022-07-18T15:48:44;1.95;;;0.32;;
40695;SDS011;40425;51.102;17.208;2022-07-18T15:53:46;4.57;;;0.30;;
40695;SDS011;40425;51.102;17.208;2022-07-18T15:58:47;7.05;;;0.50;;
40695;SDS011;40425;51.102;17.208;2022-07-18T16:03:48;3.67;;;0.30;;
40695;SDS011;40425;51.102;17.208;2022-07-18T16:08:49;2.53;;;0.30;;
40695;SDS011;40425;51.102;17.208;2022-07-18T16:13:49;1.60;;;0.40;;
40695;SDS011;40425;51.102;17.208;2022-07-18T16:18:50;3.13;;;0.30;;
40695;SDS011;40425;51.102;17.208;2022-07-18T16:23:51;3.55;;;0.30;;
40695;SDS011;40425;51.102;17.208;2022-07-18T16:28:52;2.78;;;0.30;;
40695;SDS011;40425;51.102;17.208;2022-07-18T16:33:54;5.18;;;0.63;;
40695;SDS011;40425;51.102;17.208;2022-07-18T16:38:55;2.13;;;0.30;;
40695;SDS011;40425;51.102;17.208;2022-07-18T16:43:59;1.75;;;0.43;;
40695;SDS011;40425;51.102;17.208;2022-07-18T16:49:01;2.45;;;0.30;;
40695;SDS011;40425;51.102;17.208;2022-07-18T16:54:02;4.28;;;0.50;;
40695;SDS011;40425;51.102;17.208;2022-07-18T16:59:03;1.88;;;0.30;;
40695;SDS011;40425;51.102;17.208;2022-07-18T17:04:04;2.70;;;0.50;;
40695;SDS011;40425;51.102;17.208;2022-07-18T17:09:05;2.78;;;0.40;;
40695;SDS011;40425;51.102;17.208;2022-07-18T17:14:07;1.02;;;0.30;;
40695;SDS011;40425;51.102;17.208;2022-07-18T17:19:08;2.28;;;0.35;;
40695;SDS011;40425;51.102;17.208;2022-07-18T17:24:09;2.03;;;0.43;;
40695;SDS011;40425;51.102;17.208;2022-07-18T17:29:10;6.20;;;0.40;;
40695;SDS011;40425;51.102;17.208;2022-07-18T17:34:11;3.95;;;0.45;;
40695;SDS011;40425;51.102;17.208;2022-07-18T17:39:13;5.57;;;0.52;;
40695;SDS011;40425;51.102;17.208;2022-07-18T17:44:14;2.75;;;0.32;;
40695;SDS011;40425;51.102;17.208;2022-07-18T17:49:15;4.40;;;0.40;;
40695;SDS011;40425;51.102;17.208;2022-07-18T17:54:17;5.05;;;0.40;;
40695;SDS011;40425;51.102;17.208;2022-07-18T17:59:18;2.83;;;0.40;;
40695;SDS011;40425;51.102;17.208;2022-07-18T18:04:19;6.22;;;0.50;;
40695;SDS011;40425;51.102;17.208;2022-07-18T18:09:19;1.30;;;0.40;;
40695;SDS011;40425;51.102;17.208;2022-07-18T18:14:20;4.00;;;0.40;;
40695;SDS011;40425;51.102;17.208;2022-07-18T18:19:22;3.63;;;0.55;;
40695;SDS011;40425;51.102;17.208;2022-07-18T18:24:23;1.35;;;0.38;;
40695;SDS011;40425;51.102;17.208;2022-07-18T18:29:24;5.68;;;0.80;;
40695;SDS011;40425;51.102;17.208;2022-07-18T18:34:25;4.40;;;0.52;;
40695;SDS011;40425;51.102;17.208;2022-07-18T18:39:30;2.83;;;0.35;;
40695;SDS011;40425;51.102;17.208;2022-07-18T18:44:35;4.13;;;0.50;;
40695;SDS011;40425;51.102;17.208;2022-07-18T18:49:37;3.65;;;0.40;;
40695;SDS011;40425;51.102;17.208;2022-07-18T18:54:38;3.95;;;0.52;;
40695;SDS011;40425;51.102;17.208;2022-07-18T18:59:39;6.50;;;0.60;;
40695;SDS011;40425;51.102;17.208;2022-07-18T19:04:41;10.50;;;0.65;;
40695;SDS011;40425;51.102;17.208;2022-07-18T19:09:42;4.88;;;0.63;;
40695;SDS011;40425;51.102;17.208;2022-07-18T19:14:44;2.97;;;0.45;;
40695;SDS011;40425;51.102;17.208;2022-07-18T19:19:45;9.32;;;0.70;;
40695;SDS011;40425;51.102;17.208;2022-07-18T19:24:46;6.80;;;0.63;;
40695;SDS011;40425;51.102;17.208;2022-07-18T19:29:46;7.10;;;0.60;;
40695;SDS011;40425;51.102;17.208;2022-07-18T19:34:47;3.97;;;0.57;;
40695;SDS011;40425;51.102;17.208;2022-07-18T19:39:49;11.13;;;1.20;;
40695;SDS011;40425;51.102;17.208;2022-07-18T19:44:52;9.30;;;1.45;;
40695;SDS011;40425;51.102;17.208;2022-07-18T19:50:07;17.42;;;2.53;;
40695;SDS011;40425;51.102;17.208;2022-07-18T19:55:13;6.82;;;0.77;;
40695;SDS011;40425;51.102;17.208;2022-07-18T20:00:17;5.15;;;0.60;;
40695;SDS011;40425;51.102;17.208;2022-07-18T20:05:19;5.13;;;0.80;;
40695;SDS011;40425;51.102;17.208;2022-07-18T20:10:25;9.30;;;0.80;;
40695;SDS011;40425;51.102;17.208;2022-07-18T20:15:31;5.95;;;1.95;;
40695;SDS011;40425;51.102;17.208;2022-07-18T20:20:34;6.43;;;1.30;;
40695;SDS011;40425;51.102;17.208;2022-07-18T20:25:42;10.73;;;1.50;;
40695;SDS011;40425;51.102;17.208;2022-07-18T20:30:53;5.97;;;0.85;;
40695;SDS011;40425;51.102;17.208;2022-07-18T20:36:00;6.43;;;0.90;;
40695;SDS011;40425;51.102;17.208;2022-07-18T20:41:04;4.07;;;1.10;;
40695;SDS011;40425;51.102;17.208;2022-07-18T20:46:11;7.93;;;1.90;;
40695;SDS011;40425;51.102;17.208;2022-07-18T20:51:14;4.30;;;1.27;;
40695;SDS011;40425;51.102;17.208;2022-07-18T20:56:17;7.03;;;1.73;;
40695;SDS011;40425;51.102;17.208;2022-07-18T21:01:20;4.32;;;1.80;;
40695;SDS011;40425;51.102;17.208;2022-07-18T21:06:22;5.47;;;1.67;;
40695;SDS011;40425;51.102;17.208;2022-07-18T21:11:24;7.20;;;1.50;;
40695;SDS011;40425;51.102;17.208;2022-07-18T21:16:25;5.03;;;1.45;;
40695;SDS011;40425;51.102;17.208;2022-07-18T21:21:26;6.80;;;1.70;;
40695;SDS011;40425;51.102;17.208;2022-07-18T21:26:27;4.57;;;1.45;;
40695;SDS011;40425;51.102;17.208;2022-07-18T21:31:28;8.25;;;2.20;;
40695;SDS011;40425;51.102;17.208;2022-07-18T21:36:29;10.90;;;1.85;;
40695;SDS011;40425;51.102;17.208;2022-07-18T21:41:32;3.97;;;1.52;;
40695;SDS011;40425;51.102;17.208;2022-07-18T21:46:34;4.90;;;1.20;;
40695;SDS011;40425;51.102;17.208;2022-07-18T21:51:35;4.68;;;1.25;;
40695;SDS011;40425;51.102;17.208;2022-07-18T21:56:36;2.92;;;1.00;;
40695;SDS011;40425;51.102;17.208;2022-07-18T22:01:36;6.82;;;1.00;;
40695;SDS011;40425;51.102;17.208;2022-07-18T22:06:38;6.15;;;1.65;;
40695;SDS011;40425;51.102;17.208;2022-07-18T22:11:39;2.40;;;1.00;;
40695;SDS011;40425;51.102;17.208;2022-07-18T22:16:43;4.82;;;1.73;;
40695;SDS011;40425;51.102;17.208;2022-07-18T22:21:44;3.90;;;1.38;;
40695;SDS011;40425;51.102;17.208;2022-07-18T22:26:45;3.70;;;1.17;;
40695;SDS011;40425;51.102;17.208;2022-07-18T22:31:45;2.63;;;1.00;;
40695;SDS011;40425;51.102;17.208;2022-07-18T22:36:48;5.53;;;1.77;;
40695;SDS011;40425;51.102;17.208;2022-07-18T22:41:48;4.07;;;1.63;;
40695;SDS011;40425;51.102;17.208;2022-07-18T22:46:50;4.78;;;1.73;;
40695;SDS011;40425;51.102;17.208;2022-07-18T22:51:51;7.03;;;1.80;;
40695;SDS011;40425;51.102;17.208;2022-07-18T22:56:52;14.18;;;2.90;;
40695;SDS011;40425;51.102;17.208;2022-07-18T23:01:53;9.32;;;2.83;;
40695;SDS011;40425;51.102;17.208;2022-07-18T23:06:53;8.48;;;1.83;;
40695;SDS011;40425;51.102;17.208;2022-07-18T23:11:56;5.28;;;2.85;;
40695;SDS011;40425;51.102;17.208;2022-07-18T23:16:58;6.10;;;2.03;;
40695;SDS011;40425;51.102;17.208;2022-07-18T23:21:59;5.00;;;2.17;;
40695;SDS011;40425;51.102;17.208;2022-07-18T23:27:00;11.32;;;2.47;;
40695;SDS011;40425;51.102;17.208;2022-07-18T23:32:01;7.00;;;1.83;;
40695;SDS011;40425;51.102;17.208;2022-07-18T23:37:02;2.95;;;1.55;;
40695;SDS011;40425;51.102;17.208;2022-07-18T23:42:06;4.82;;;2.47;;
40695;SDS011;40425;51.102;17.208;2022-07-18T23:47:07;6.97;;;2.00;;
40695;SDS011;40425;51.102;17.208;2022-07-18T23:52:08;4.03;;;1.98;;
40695;SDS011;40425;51.102;17.208;2022-07-18T23:57:13;5.13;;;2.40;;
